sensor_id;sensor_type;location;lat;lon;timestamp;pressure;altitude;pressure_sealevel;temperature;humidity
23223;BME280;11780;13.904;100.620;2023-04-26T00:01:32;100925.59;;;31.34;69.81
23223;BME280;11780;13.904;100.620;2023-04-26T00:04:04;100910.00;;;31.29;69.73
23223;BME280;11780;13.904;100.620;2023-04-26T00:06:34;100914.84;;;31.32;69.81
23223;BME280;11780;13.904;100.620;2023-04-26T00:09:05;100913.72;;;31.33;69.77
23223;BME280;11780;13.904;100.620;2023-04-26T00:11:36;100925.13;;;31.32;69.92
23223;BME280;11780;13.904;100.620;2023-04-26T00:14:06;100931.16;;;31.42;69.56
23223;BME280;11780;13.904;100.620;2023-04-26T00:16:37;100942.03;;;31.39;70.09
23223;BME280;11780;13.904;100.620;2023-04-26T00:19:07;100942.50;;;31.41;70.28
23223;BME280;11780;13.904;100.620;2023-04-26T00:21:39;100950.31;;;31.39;70.66
23223;BME280;11780;13.904;100.620;2023-04-26T00:24:09;100960.09;;;31.45;70.36
23223;BME280;11780;13.904;100.620;2023-04-26T00:26:40;100963.50;;;31.42;70.25
23223;BME280;11780;13.904;100.620;2023-04-26T00:29:10;100974.06;;;31.49;70.04
23223;BME280;11780;13.904;100.620;2023-04-26T00:31:41;100970.19;;;31.50;70.16
23223;BME280;11780;13.904;100.620;2023-04-26T00:34:12;100964.66;;;31.50;70.36
23223;BME280;11780;13.904;100.620;2023-04-26T00:36:42;100967.25;;;31.46;70.56
23223;BME280;11780;13.904;100.620;2023-04-26T00:39:13;100972.91;;;31.41;71.13
23223;BME280;11780;13.904;100.620;2023-04-26T00:41:43;100976.81;;;31.40;71.00
23223;BME280;11780;13.904;100.620;2023-04-26T00:44:13;100985.59;;;31.42;71.21
23223;BME280;11780;13.904;100.620;2023-04-26T00:46:45;100994.41;;;31.44;71.11
23223;BME280;11780;13.904;100.620;2023-04-26T00:49:17;101004.31;;;31.45;70.97
23223;BME280;11780;13.904;100.620;2023-04-26T00:51:49;101000.91;;;31.48;71.04
23223;BME280;11780;13.904;100.620;2023-04-26T00:54:20;101009.03;;;31.36;70.88
23223;BME280;11780;13.904;100.620;2023-04-26T00:56:51;100993.28;;;31.54;70.13
23223;BME280;11780;13.904;100.620;2023-04-26T00:59:22;100994.91;;;31.46;70.39
23223;BME280;11780;13.904;100.620;2023-04-26T01:01:52;100993.25;;;31.36;70.34
23223;BME280;11780;13.904;100.620;2023-04-26T01:04:23;100982.53;;;31.43;70.41
23223;BME280;11780;13.904;100.620;2023-04-26T01:06:56;100987.25;;;31.43;70.38
23223;BME280;11780;13.904;100.620;2023-04-26T01:09:28;100985.28;;;31.35;70.26
23223;BME280;11780;13.904;100.620;2023-04-26T01:12:00;100998.63;;;31.41;70.57
23223;BME280;11780;13.904;100.620;2023-04-26T01:14:31;100999.59;;;31.46;69.86
23223;BME280;11780;13.904;100.620;2023-04-26T01:17:05;100999.13;;;31.43;70.73
23223;BME280;11780;13.904;100.620;2023-04-26T01:19:46;101006.09;;;31.41;70.70
23223;BME280;11780;13.904;100.620;2023-04-26T01:22:17;101016.50;;;31.44;70.82
23223;BME280;11780;13.904;100.620;2023-04-26T01:24:50;101039.25;;;31.41;70.82
23223;BME280;11780;13.904;100.620;2023-04-26T01:27:20;101052.41;;;31.35;70.92
23223;BME280;11780;13.904;100.620;2023-04-26T01:29:50;101069.19;;;31.48;70.89
23223;BME280;11780;13.904;100.620;2023-04-26T01:32:22;101079.28;;;31.43;70.83
23223;BME280;11780;13.904;100.620;2023-04-26T01:34:53;101081.91;;;31.49;70.82
23223;BME280;11780;13.904;100.620;2023-04-26T01:37:23;101082.84;;;31.44;70.02
23223;BME280;11780;13.904;100.620;2023-04-26T01:39:55;101078.16;;;31.44;70.53
23223;BME280;11780;13.904;100.620;2023-04-26T01:42:26;101086.13;;;31.46;70.08
23223;BME280;11780;13.904;100.620;2023-04-26T01:44:58;101087.88;;;31.42;70.27
23223;BME280;11780;13.904;100.620;2023-04-26T01:47:49;101095.72;;;31.49;69.43
23223;BME280;11780;13.904;100.620;2023-04-26T01:50:19;101110.03;;;31.51;69.75
23223;BME280;11780;13.904;100.620;2023-04-26T01:52:50;101115.28;;;31.52;69.37
23223;BME280;11780;13.904;100.620;2023-04-26T01:55:20;101120.47;;;31.54;69.48
23223;BME280;11780;13.904;100.620;2023-04-26T01:57:50;101125.16;;;31.53;69.45
23223;BME280;11780;13.904;100.620;2023-04-26T02:00:21;101125.31;;;31.48;69.69
23223;BME280;11780;13.904;100.620;2023-04-26T02:02:55;101122.22;;;31.50;69.48
23223;BME280;11780;13.904;100.620;2023-04-26T02:05:25;101127.63;;;31.55;69.55
23223;BME280;11780;13.904;100.620;2023-04-26T02:07:56;101120.47;;;31.54;69.37
23223;BME280;11780;13.904;100.620;2023-04-26T02:10:26;101129.25;;;31.56;69.03
23223;BME280;11780;13.904;100.620;2023-04-26T02:12:56;101127.50;;;31.60;69.16
23223;BME280;11780;13.904;100.620;2023-04-26T02:15:26;101118.84;;;31.53;68.66
23223;BME280;11780;13.904;100.620;2023-04-26T02:17:57;101118.03;;;31.52;68.77
23223;BME280;11780;13.904;100.620;2023-04-26T02:20:27;101131.19;;;31.55;68.77
23223;BME280;11780;13.904;100.620;2023-04-26T02:22:57;101133.97;;;31.55;68.87
23223;BME280;11780;13.904;100.620;2023-04-26T02:25:28;101139.50;;;31.55;68.91
23223;BME280;11780;13.904;100.620;2023-04-26T02:27:58;101130.88;;;31.57;69.08
23223;BME280;11780;13.904;100.620;2023-04-26T02:30:29;101130.06;;;31.56;68.93
23223;BME280;11780;13.904;100.620;2023-04-26T02:33:00;101132.03;;;31.56;68.85
23223;BME280;11780;13.904;100.620;2023-04-26T02:35:31;101132.19;;;31.59;68.61
23223;BME280;11780;13.904;100.620;2023-04-26T02:38:01;101135.47;;;31.62;68.77
23223;BME280;11780;13.904;100.620;2023-04-26T02:40:32;101127.00;;;31.58;68.76
23223;BME280;11780;13.904;100.620;2023-04-26T02:43:02;101124.41;;;31.62;68.82
23223;BME280;11780;13.904;100.620;2023-04-26T02:45:32;101120.81;;;31.61;68.58
23223;BME280;11780;13.904;100.620;2023-04-26T02:48:03;101127.34;;;31.65;68.65
23223;BME280;11780;13.904;100.620;2023-04-26T02:50:34;101126.84;;;31.63;68.44
23223;BME280;11780;13.904;100.620;2023-04-26T02:53:04;101133.69;;;31.66;68.33
23223;BME280;11780;13.904;100.620;2023-04-26T02:55:36;101139.22;;;31.66;68.03
23223;BME280;11780;13.904;100.620;2023-04-26T02:58:07;101148.03;;;31.68;68.21
23223;BME280;11780;13.904;100.620;2023-04-26T03:00:38;101157.91;;;31.69;67.99
23223;BME280;11780;13.904;100.620;2023-04-26T03:03:08;101152.38;;;31.69;68.04
23223;BME280;11780;13.904;100.620;2023-04-26T03:05:39;101144.63;;;31.71;67.86
23223;BME280;11780;13.904;100.620;2023-04-26T03:08:10;101139.59;;;31.73;67.81
23223;BME280;11780;13.904;100.620;2023-04-26T03:10:40;101133.25;;;31.72;67.77
23223;BME280;11780;13.904;100.620;2023-04-26T03:13:11;101132.13;;;31.73;67.71
23223;BME280;11780;13.904;100.620;2023-04-26T03:15:44;101135.69;;;31.74;67.71
23223;BME280;11780;13.904;100.620;2023-04-26T03:18:15;101129.16;;;31.70;67.49
23223;BME280;11780;13.904;100.620;2023-04-26T03:20:45;101134.69;;;31.70;67.46
23223;BME280;11780;13.904;100.620;2023-04-26T03:23:16;101142.84;;;31.75;67.38
23223;BME280;11780;13.904;100.620;2023-04-26T03:25:46;101153.91;;;31.75;67.86
23223;BME280;11780;13.904;100.620;2023-04-26T03:28:17;101163.19;;;31.70;67.48
23223;BME280;11780;13.904;100.620;2023-04-26T03:30:47;101163.69;;;31.72;67.55
23223;BME280;11780;13.904;100.620;2023-04-26T03:33:21;101163.69;;;31.72;67.55
23223;BME280;11780;13.904;100.620;2023-04-26T03:35:52;101156.50;;;31.71;67.42
23223;BME280;11780;13.904;100.620;2023-04-26T03:38:24;101160.69;;;31.69;66.93
23223;BME280;11780;13.904;100.620;2023-04-26T03:40:55;101164.75;;;31.63;66.91
23223;BME280;11780;13.904;100.620;2023-04-26T03:43:25;101162.97;;;31.67;66.58
23223;BME280;11780;13.904;100.620;2023-04-26T03:45:55;101153.84;;;31.66;66.92
23223;BME280;11780;13.904;100.620;2023-04-26T03:48:26;101149.75;;;31.55;67.13
23223;BME280;11780;13.904;100.620;2023-04-26T03:50:56;101159.97;;;31.54;67.31
23223;BME280;11780;13.904;100.620;2023-04-26T03:53:27;101159.09;;;31.68;66.86
23223;BME280;11780;13.904;100.620;2023-04-26T03:55:57;101160.81;;;31.55;67.35
23223;BME280;11780;13.904;100.620;2023-04-26T03:58:29;101151.22;;;31.52;67.61
23223;BME280;11780;13.904;100.620;2023-04-26T04:01:00;101140.16;;;31.52;67.63
23223;BME280;11780;13.904;100.620;2023-04-26T04:03:30;101143.38;;;31.54;67.43
23223;BME280;11780;13.904;100.620;2023-04-26T04:06:03;101133.97;;;31.55;67.48
23223;BME280;11780;13.904;100.620;2023-04-26T04:08:34;101134.47;;;31.57;67.18
23223;BME280;11780;13.904;100.620;2023-04-26T04:11:04;101143.38;;;31.54;67.50
23223;BME280;11780;13.904;100.620;2023-04-26T04:13:37;101137.84;;;31.54;67.30
23223;BME280;11780;13.904;100.620;2023-04-26T04:16:08;101145.69;;;31.52;67.26
23223;BME280;11780;13.904;100.620;2023-04-26T04:18:40;101149.56;;;31.51;67.76
23223;BME280;11780;13.904;100.620;2023-04-26T04:21:10;101150.75;;;31.59;67.41
23223;BME280;11780;13.904;100.620;2023-04-26T04:23:41;101150.03;;;31.53;67.61
23223;BME280;11780;13.904;100.620;2023-04-26T04:26:12;101139.31;;;31.52;67.61
23223;BME280;11780;13.904;100.620;2023-04-26T04:28:43;101148.13;;;31.54;67.57
23223;BME280;11780;13.904;100.620;2023-04-26T04:31:15;101158.16;;;31.50;67.71
23223;BME280;11780;13.904;100.620;2023-04-26T04:33:46;101162.91;;;31.49;67.58
23223;BME280;11780;13.904;100.620;2023-04-26T04:36:17;101168.44;;;31.49;67.22
23223;BME280;11780;13.904;100.620;2023-04-26T04:38:47;101186.94;;;31.49;67.32
23223;BME280;11780;13.904;100.620;2023-04-26T04:41:19;101183.38;;;31.48;67.25
23223;BME280;11780;13.904;100.620;2023-04-26T04:43:51;101179.78;;;31.48;66.70
23223;BME280;11780;13.904;100.620;2023-04-26T04:46:22;101170.69;;;31.47;66.56
23223;BME280;11780;13.904;100.620;2023-04-26T04:48:54;101175.38;;;31.47;66.82
23223;BME280;11780;13.904;100.620;2023-04-26T04:51:24;101175.09;;;31.48;66.71
23223;BME280;11780;13.904;100.620;2023-04-26T04:53:56;101177.84;;;31.48;66.55
23223;BME280;11780;13.904;100.620;2023-04-26T04:56:27;101156.25;;;31.50;66.68
23223;BME280;11780;13.904;100.620;2023-04-26T04:58:57;101137.53;;;31.47;66.42
23223;BME280;11780;13.904;100.620;2023-04-26T05:01:29;101146.94;;;31.46;66.82
23223;BME280;11780;13.904;100.620;2023-04-26T05:04:04;101133.13;;;31.46;66.36
23223;BME280;11780;13.904;100.620;2023-04-26T05:06:36;101120.44;;;31.45;66.11
23223;BME280;11780;13.904;100.620;2023-04-26T05:09:07;101124.00;;;31.46;66.02
23223;BME280;11780;13.904;100.620;2023-04-26T05:11:38;101120.09;;;31.47;66.24
23223;BME280;11780;13.904;100.620;2023-04-26T05:14:10;101110.16;;;31.46;66.06
23223;BME280;11780;13.904;100.620;2023-04-26T05:16:42;101106.28;;;31.47;65.75
23223;BME280;11780;13.904;100.620;2023-04-26T05:19:12;101087.25;;;31.45;66.05
23223;BME280;11780;13.904;100.620;2023-04-26T05:21:43;101065.78;;;31.42;65.73
23223;BME280;11780;13.904;100.620;2023-04-26T05:24:13;101060.75;;;31.44;65.90
23223;BME280;11780;13.904;100.620;2023-04-26T05:26:44;101051.31;;;31.45;65.36
23223;BME280;11780;13.904;100.620;2023-04-26T05:29:35;101033.59;;;31.46;65.31
23223;BME280;11780;13.904;100.620;2023-04-26T05:32:13;101017.34;;;31.44;65.42
23223;BME280;11780;13.904;100.620;2023-04-26T05:35:10;101004.31;;;31.45;65.20
23223;BME280;11780;13.904;100.620;2023-04-26T05:37:41;100997.66;;;31.46;64.97
23223;BME280;11780;13.904;100.620;2023-04-26T05:40:13;100986.25;;;31.48;65.02
23223;BME280;11780;13.904;100.620;2023-04-26T05:42:44;100974.41;;;31.47;64.74
23223;BME280;11780;13.904;100.620;2023-04-26T05:45:15;100972.28;;;31.44;64.24
23223;BME280;11780;13.904;100.620;2023-04-26T05:47:45;100978.16;;;31.42;63.83
23223;BME280;11780;13.904;100.620;2023-04-26T05:50:20;100971.47;;;31.43;64.11
23223;BME280;11780;13.904;100.620;2023-04-26T05:52:50;100973.13;;;31.44;63.52
23223;BME280;11780;13.904;100.620;2023-04-26T05:55:21;100969.03;;;31.42;63.31
23223;BME280;11780;13.904;100.620;2023-04-26T05:57:51;100958.47;;;31.44;63.44
23223;BME280;11780;13.904;100.620;2023-04-26T06:00:22;100946.91;;;31.42;62.84
23223;BME280;11780;13.904;100.620;2023-04-26T06:02:52;100942.03;;;31.48;62.54
23223;BME280;11780;13.904;100.620;2023-04-26T06:05:23;100939.94;;;31.44;62.52
23223;BME280;11780;13.904;100.620;2023-04-26T06:07:54;100915.84;;;31.45;62.67
23223;BME280;11780;13.904;100.620;2023-04-26T06:10:24;100913.59;;;31.47;62.66
23223;BME280;11780;13.904;100.620;2023-04-26T06:12:55;100905.94;;;31.44;62.29
23223;BME280;11780;13.904;100.620;2023-04-26T06:15:27;100892.94;;;31.44;62.36
23223;BME280;11780;13.904;100.620;2023-04-26T06:17:59;100887.88;;;31.47;62.37
23223;BME280;11780;13.904;100.620;2023-04-26T06:20:31;100889.00;;;31.46;62.51
23223;BME280;11780;13.904;100.620;2023-04-26T06:23:02;100883.50;;;31.46;61.93
23223;BME280;11780;13.904;100.620;2023-04-26T06:25:32;100882.34;;;31.47;61.99
23223;BME280;11780;13.904;100.620;2023-04-26T06:28:03;100882.53;;;31.50;61.64
23223;BME280;11780;13.904;100.620;2023-04-26T06:30:34;100878.63;;;31.51;61.98
23223;BME280;11780;13.904;100.620;2023-04-26T06:33:04;100871.47;;;31.50;62.28
23223;BME280;11780;13.904;100.620;2023-04-26T06:35:39;100871.97;;;31.52;61.98
23223;BME280;11780;13.904;100.620;2023-04-26T06:38:11;100861.06;;;31.56;61.77
23223;BME280;11780;13.904;100.620;2023-04-26T06:40:42;100869.22;;;31.52;60.98
23223;BME280;11780;13.904;100.620;2023-04-26T06:43:12;100858.59;;;31.54;60.86
23223;BME280;11780;13.904;100.620;2023-04-26T06:46:02;100851.00;;;31.51;61.13
23223;BME280;11780;13.904;100.620;2023-04-26T06:48:32;100843.50;;;31.52;61.17
23223;BME280;11780;13.904;100.620;2023-04-26T06:51:06;100845.47;;;31.51;61.00
23223;BME280;11780;13.904;100.620;2023-04-26T06:53:37;100840.41;;;31.53;60.85
23223;BME280;11780;13.904;100.620;2023-04-26T06:56:08;100838.78;;;31.52;61.11
23223;BME280;11780;13.904;100.620;2023-04-26T06:58:39;100827.88;;;31.56;60.96
23223;BME280;11780;13.904;100.620;2023-04-26T07:01:09;100815.69;;;31.57;60.34
23223;BME280;11780;13.904;100.620;2023-04-26T07:03:39;100822.16;;;31.61;60.06
23223;BME280;11780;13.904;100.620;2023-04-26T07:06:11;100808.34;;;31.61;59.37
23223;BME280;11780;13.904;100.620;2023-04-26T07:08:42;100809.03;;;31.58;59.77
23223;BME280;11780;13.904;100.620;2023-04-26T07:11:12;100800.38;;;31.59;59.58
23223;BME280;11780;13.904;100.620;2023-04-26T07:13:42;100795.34;;;31.62;59.41
23223;BME280;11780;13.904;100.620;2023-04-26T07:16:13;100792.94;;;31.60;59.00
23223;BME280;11780;13.904;100.620;2023-04-26T07:18:43;100801.69;;;31.62;59.34
23223;BME280;11780;13.904;100.620;2023-04-26T07:21:14;100791.31;;;31.59;58.74
23223;BME280;11780;13.904;100.620;2023-04-26T07:23:46;100780.03;;;31.64;58.50
23223;BME280;11780;13.904;100.620;2023-04-26T07:26:17;100767.56;;;31.58;58.19
23223;BME280;11780;13.904;100.620;2023-04-26T07:28:47;100757.16;;;31.55;58.49
23223;BME280;11780;13.904;100.620;2023-04-26T07:31:18;100758.44;;;31.57;58.18
23223;BME280;11780;13.904;100.620;2023-04-26T07:33:48;100765.28;;;31.51;58.76
23223;BME280;11780;13.904;100.620;2023-04-26T07:36:19;100755.66;;;31.57;58.50
23223;BME280;11780;13.904;100.620;2023-04-26T07:38:51;100751.75;;;31.58;58.76
23223;BME280;11780;13.904;100.620;2023-04-26T07:41:21;100740.69;;;31.58;58.79
23223;BME280;11780;13.904;100.620;2023-04-26T07:43:52;100741.69;;;31.63;58.57
23223;BME280;11780;13.904;100.620;2023-04-26T07:46:22;100732.75;;;31.57;58.71
23223;BME280;11780;13.904;100.620;2023-04-26T07:48:53;100746.22;;;31.58;58.83
23223;BME280;11780;13.904;100.620;2023-04-26T07:51:23;100751.91;;;31.62;58.96
23223;BME280;11780;13.904;100.620;2023-04-26T07:53:53;100738.44;;;31.61;58.78
23223;BME280;11780;13.904;100.620;2023-04-26T07:56:27;100741.34;;;31.64;58.80
23223;BME280;11780;13.904;100.620;2023-04-26T07:58:57;100728.34;;;31.65;58.57
23223;BME280;11780;13.904;100.620;2023-04-26T08:01:28;100728.81;;;31.67;58.87
23223;BME280;11780;13.904;100.620;2023-04-26T08:03:58;100722.16;;;31.68;58.81
23223;BME280;11780;13.904;100.620;2023-04-26T08:06:29;100715.97;;;31.62;58.92
23223;BME280;11780;13.904;100.620;2023-04-26T08:09:00;100709.28;;;31.63;58.71
23223;BME280;11780;13.904;100.620;2023-04-26T08:11:30;100693.53;;;31.64;59.18
23223;BME280;11780;13.904;100.620;2023-04-26T08:14:01;100691.06;;;31.62;59.18
23223;BME280;11780;13.904;100.620;2023-04-26T08:16:31;100676.94;;;31.64;59.22
23223;BME280;11780;13.904;100.620;2023-04-26T08:19:02;100680.84;;;31.63;59.47
23223;BME280;11780;13.904;100.620;2023-04-26T08:21:32;100684.09;;;31.65;59.49
23223;BME280;11780;13.904;100.620;2023-04-26T08:24:03;100678.88;;;31.63;59.49
23223;BME280;11780;13.904;100.620;2023-04-26T08:26:33;100674.66;;;31.66;59.19
23223;BME280;11780;13.904;100.620;2023-04-26T08:29:03;100672.38;;;31.68;59.26
23223;BME280;11780;13.904;100.620;2023-04-26T08:31:34;100668.00;;;31.67;59.41
23223;BME280;11780;13.904;100.620;2023-04-26T08:34:05;100670.75;;;31.67;59.79
23223;BME280;11780;13.904;100.620;2023-04-26T08:36:37;100672.38;;;31.68;60.30
23223;BME280;11780;13.904;100.620;2023-04-26T08:39:07;100673.03;;;31.65;60.10
23223;BME280;11780;13.904;100.620;2023-04-26T08:41:43;100686.22;;;31.68;60.20
23223;BME280;11780;13.904;100.620;2023-04-26T08:44:15;100687.34;;;31.67;60.16
23223;BME280;11780;13.904;100.620;2023-04-26T08:49:43;100675.16;;;31.68;60.41
23223;BME280;11780;13.904;100.620;2023-04-26T08:52:16;100674.81;;;31.69;60.30
23223;BME280;11780;13.904;100.620;2023-04-26T08:54:52;100675.63;;;31.70;60.41
23223;BME280;11780;13.904;100.620;2023-04-26T08:57:23;100667.03;;;31.71;60.17
23223;BME280;11780;13.904;100.620;2023-04-26T08:59:55;100664.56;;;31.70;60.17
23223;BME280;11780;13.904;100.620;2023-04-26T09:02:27;100659.53;;;31.72;59.92
23223;BME280;11780;13.904;100.620;2023-04-26T09:04:57;100657.91;;;31.71;60.16
23223;BME280;11780;13.904;100.620;2023-04-26T09:07:39;100647.16;;;31.69;60.03
23223;BME280;11780;13.904;100.620;2023-04-26T09:10:12;100642.75;;;31.68;60.14
23223;BME280;11780;13.904;100.620;2023-04-26T09:12:42;100644.56;;;31.73;59.57
23223;BME280;11780;13.904;100.620;2023-04-26T09:15:14;100641.00;;;31.72;59.71
23223;BME280;11780;13.904;100.620;2023-04-26T09:17:44;100658.06;;;31.74;59.95
23223;BME280;11780;13.904;100.620;2023-04-26T09:20:27;100656.09;;;31.75;60.09
23223;BME280;11780;13.904;100.620;2023-04-26T09:23:06;100653.81;;;31.77;59.73
23223;BME280;11780;13.904;100.620;2023-04-26T09:25:37;100647.50;;;31.77;59.94
23223;BME280;11780;13.904;100.620;2023-04-26T09:28:22;100645.03;;;31.75;60.33
23223;BME280;11780;13.904;100.620;2023-04-26T09:30:52;100647.16;;;31.78;60.18
23223;BME280;11780;13.904;100.620;2023-04-26T09:33:23;100635.59;;;31.76;60.29
23223;BME280;11780;13.904;100.620;2023-04-26T09:35:53;100636.88;;;31.79;60.38
23223;BME280;11780;13.904;100.620;2023-04-26T09:38:23;100629.41;;;31.79;60.96
23223;BME280;11780;13.904;100.620;2023-04-26T09:40:53;100632.97;;;31.80;60.78
23223;BME280;11780;13.904;100.620;2023-04-26T09:43:36;100638.03;;;31.78;60.51
23223;BME280;11780;13.904;100.620;2023-04-26T09:46:06;100638.03;;;31.78;60.50
23223;BME280;11780;13.904;100.620;2023-04-26T09:48:36;100648.78;;;31.79;60.48
23223;BME280;11780;13.904;100.620;2023-04-26T09:51:10;100656.25;;;31.79;60.35
23223;BME280;11780;13.904;100.620;2023-04-26T09:53:48;100663.75;;;31.78;60.53
23223;BME280;11780;13.904;100.620;2023-04-26T09:56:23;100675.28;;;31.80;60.75
23223;BME280;11780;13.904;100.620;2023-04-26T09:58:57;100678.38;;;31.79;60.81
23223;BME280;11780;13.904;100.620;2023-04-26T10:01:28;100675.94;;;31.77;60.53
23223;BME280;11780;13.904;100.620;2023-04-26T10:04:02;100676.09;;;31.81;60.74
23223;BME280;11780;13.904;100.620;2023-04-26T10:06:33;100671.69;;;31.80;61.02
23223;BME280;11780;13.904;100.620;2023-04-26T10:09:04;100672.84;;;31.79;61.06
23223;BME280;11780;13.904;100.620;2023-04-26T10:11:37;100674.47;;;31.80;61.23
23223;BME280;11780;13.904;100.620;2023-04-26T10:14:08;100669.75;;;31.80;61.14
23223;BME280;11780;13.904;100.620;2023-04-26T10:16:39;100676.44;;;31.79;61.54
23223;BME280;11780;13.904;100.620;2023-04-26T10:19:11;100672.03;;;31.78;61.94
23223;BME280;11780;13.904;100.620;2023-04-26T10:21:42;100686.84;;;31.82;61.74
23223;BME280;11780;13.904;100.620;2023-04-26T10:24:13;100698.56;;;31.79;61.82
23223;BME280;11780;13.904;100.620;2023-04-26T10:26:53;100702.47;;;31.78;61.70
23223;BME280;11780;13.904;100.620;2023-04-26T10:32:28;100718.06;;;31.83;61.81
23223;BME280;11780;13.904;100.620;2023-04-26T10:35:09;100725.38;;;31.79;62.16
23223;BME280;11780;13.904;100.620;2023-04-26T10:40:34;100740.69;;;31.76;62.48
23223;BME280;11780;13.904;100.620;2023-04-26T10:45:46;100745.56;;;31.79;62.36
23223;BME280;11780;13.904;100.620;2023-04-26T10:48:29;100743.13;;;31.78;62.70
23223;BME280;11780;13.904;100.620;2023-04-26T10:59:10;100773.88;;;31.76;63.50
23223;BME280;11780;13.904;100.620;2023-04-26T11:02:01;100783.31;;;31.75;63.33
23223;BME280;11780;13.904;100.620;2023-04-26T11:04:51;100791.31;;;31.77;63.35
23223;BME280;11780;13.904;100.620;2023-04-26T11:07:39;100797.63;;;31.77;63.65
23223;BME280;11780;13.904;100.620;2023-04-26T11:10:21;100803.16;;;31.77;63.93
23223;BME280;11780;13.904;100.620;2023-04-26T11:13:02;100817.78;;;31.78;63.95
23223;BME280;11780;13.904;100.620;2023-04-26T11:15:33;100820.91;;;31.76;64.13
23223;BME280;11780;13.904;100.620;2023-04-26T11:18:04;100827.56;;;31.75;63.89
23223;BME280;11780;13.904;100.620;2023-04-26T11:20:34;100830.31;;;31.75;64.25
23223;BME280;11780;13.904;100.620;2023-04-26T11:23:06;100829.84;;;31.73;64.61
23223;BME280;11780;13.904;100.620;2023-04-26T11:25:40;100835.84;;;31.75;64.55
23223;BME280;11780;13.904;100.620;2023-04-26T11:28:11;100847.25;;;31.73;64.35
23223;BME280;11780;13.904;100.620;2023-04-26T11:30:42;100842.88;;;31.72;64.40
23223;BME280;11780;13.904;100.620;2023-04-26T11:33:19;100850.94;;;31.69;64.85
23223;BME280;11780;13.904;100.620;2023-04-26T11:35:52;100858.63;;;31.72;64.51
23223;BME280;11780;13.904;100.620;2023-04-26T11:38:24;100860.91;;;31.70;64.86
23223;BME280;11780;13.904;100.620;2023-04-26T11:41:01;100870.03;;;31.70;64.40
23223;BME280;11780;13.904;100.620;2023-04-26T11:43:36;100875.56;;;31.70;64.73
23223;BME280;11780;13.904;100.620;2023-04-26T11:46:07;100877.00;;;31.68;64.56
23223;BME280;11780;13.904;100.620;2023-04-26T11:48:39;100876.66;;;31.69;64.77
23223;BME280;11780;13.904;100.620;2023-04-26T11:51:09;100878.59;;;31.69;64.90
23223;BME280;11780;13.904;100.620;2023-04-26T11:53:41;100888.91;;;31.77;64.49
23223;BME280;11780;13.904;100.620;2023-04-26T11:56:19;100885.97;;;31.82;64.51
23223;BME280;11780;13.904;100.620;2023-04-26T11:58:52;100899.31;;;31.80;64.22
23223;BME280;11780;13.904;100.620;2023-04-26T12:01:27;100903.22;;;31.79;64.58
23223;BME280;11780;13.904;100.620;2023-04-26T12:03:58;100906.78;;;31.80;64.15
23223;BME280;11780;13.904;100.620;2023-04-26T12:06:43;100917.84;;;31.80;64.22
23223;BME280;11780;13.904;100.620;2023-04-26T12:09:14;100920.94;;;31.78;64.06
23223;BME280;11780;13.904;100.620;2023-04-26T12:12:03;100919.97;;;31.74;64.55
23223;BME280;11780;13.904;100.620;2023-04-26T12:14:36;100929.88;;;31.75;64.89
23223;BME280;11780;13.904;100.620;2023-04-26T12:17:07;100931.03;;;31.74;64.57
23223;BME280;11780;13.904;100.620;2023-04-26T12:19:39;100939.78;;;31.67;64.84
23223;BME280;11780;13.904;100.620;2023-04-26T12:22:10;100945.31;;;31.67;65.21
23223;BME280;11780;13.904;100.620;2023-04-26T12:24:40;100948.41;;;31.66;64.85
23223;BME280;11780;13.904;100.620;2023-04-26T12:27:19;100962.75;;;31.68;65.18
23223;BME280;11780;13.904;100.620;2023-04-26T12:29:50;100961.09;;;31.67;65.10
23223;BME280;11780;13.904;100.620;2023-04-26T12:32:20;100971.34;;;31.66;65.02
23223;BME280;11780;13.904;100.620;2023-04-26T12:34:51;100974.78;;;31.72;65.00
23223;BME280;11780;13.904;100.620;2023-04-26T12:37:21;100986.84;;;31.76;64.70
23223;BME280;11780;13.904;100.620;2023-04-26T12:39:51;100991.88;;;31.74;64.72
23223;BME280;11780;13.904;100.620;2023-04-26T12:42:21;100994.13;;;31.72;64.90
23223;BME280;11780;13.904;100.620;2023-04-26T12:44:52;100980.31;;;31.72;64.92
23223;BME280;11780;13.904;100.620;2023-04-26T12:47:22;100975.91;;;31.71;65.18
23223;BME280;11780;13.904;100.620;2023-04-26T12:49:52;100963.72;;;31.72;65.16
23223;BME280;11780;13.904;100.620;2023-04-26T12:52:23;100971.69;;;31.65;65.73
23223;BME280;11780;13.904;100.620;2023-04-26T12:54:53;100982.72;;;31.65;66.10
23223;BME280;11780;13.904;100.620;2023-04-26T12:57:23;100992.81;;;31.61;65.80
23223;BME280;11780;13.904;100.620;2023-04-26T12:59:54;100998.50;;;31.64;66.54
23223;BME280;11780;13.904;100.620;2023-04-26T13:03:23;101002.22;;;31.59;66.18
23223;BME280;11780;13.904;100.620;2023-04-26T13:05:53;101009.41;;;31.61;66.52
23223;BME280;11780;13.904;100.620;2023-04-26T13:08:24;101006.16;;;31.67;66.41
23223;BME280;11780;13.904;100.620;2023-04-26T13:10:56;101023.75;;;31.71;66.45
23223;BME280;11780;13.904;100.620;2023-04-26T13:13:26;101018.69;;;31.65;66.63
23223;BME280;11780;13.904;100.620;2023-04-26T13:16:10;101015.41;;;31.54;67.12